• Join FlightAware (Why Join?)
  • Login
  • US Flag 
05:20PM EST


 

Airport Tracker/Info


-or-


 

Live Flight TrackerFlight Track Log ✈ FDX1479 ✈ 04-May-2013 ✈ KMEM - KSHV

Flight Track Log - Related Links

Times and Time Zones

All times are in EDT time to prevent confusion due to time zone crossing. See the FDX1479 flight status page for this flight to view local times or setup timezone preferences in your user account.

Time Position Orientation Groundspeed Altitude Reporting Facility
EDT Latitude Longitude Course Direction KTS MPH feet Rate Location/Type
05:33AM 35.0333 -89.9833 180° South 136 157 900  Level KMEM
05:33AM 35.0000 -89.9833 180° South 168 193 2,700 3,588 Climbing KMEM
05:34AM 34.9333 -89.9833 180° South 267 307 7,000 4,200 Climbing KMEM
05:35AM 34.8500 -89.9833 180° South 268 308 11,100 3,188 Climbing KMEM
05:36AM 34.8128 -89.9928 192° South 351 404 12,100 3,125 Climbing Memphis Center
05:37AM 34.7189 -90.0286 197° South 353 406 16,100 1,950 Climbing Memphis Center
05:38AM 34.6775 -90.1297 244° Southwest 339 390 16,000 -50 Descending Memphis Center
05:39AM 34.6589 -90.2689 261° West 359 413 16,000 1,550 Level Memphis Center
05:40AM 34.6422 -90.3950 261° West 377 434 19,100 3,050 Climbing Memphis Center
05:41AM 34.6233 -90.5289 260° West 399 459 22,100 2,000 Climbing Memphis Center
05:42AM 34.5814 -90.6650 250° West 410 472 23,100 1,650 Climbing Memphis Center
05:43AM 34.5142 -90.7856 236° Southwest 424 488 25,400 2,600 Climbing Memphis Center
05:44AM 34.4386 -90.9036 232° Southwest 447 514 28,300 2,300 Climbing Memphis Center
05:45AM 34.3672 -91.0189 233° Southwest 447 514 30,000 850 Climbing Memphis Center
05:46AM 34.2956 -91.1339 233° Southwest 440 506 30,000  Level Memphis Center
05:47AM 34.2217 -91.2489 232° Southwest 440 506 30,000  Level Memphis Center
05:48AM 34.1583 -91.3511 233° Southwest 435 501 30,000  Level Memphis Center
05:49AM 34.0864 -91.4658 233° Southwest 430 495 30,000  Level Memphis Center
05:50AM 34.0125 -91.5725 230° Southwest 430 495 30,000  Level Memphis Center
05:51AM 33.9444 -91.6842 234° Southwest 430 495 30,000  Level Memphis Center
05:52AM 33.8764 -91.7958 234° Southwest 430 495 30,000  Level Memphis Center
05:54AM 33.7475 -91.9956 232° Southwest 427 491 30,000  Level Fort Worth Center
05:55AM 33.6708 -92.1050 230° Southwest 427 491 30,000  Level Fort Worth Center
05:56AM 33.5919 -92.2097 228° Southwest 427 491 30,000  Level Fort Worth Center
05:57AM 33.5125 -92.3114 227° Southwest 427 491 30,000  Level Fort Worth Center
05:58AM 33.4331 -92.4131 227° Southwest 427 491 30,000  Level Fort Worth Center
05:59AM 33.3497 -92.5172 226° Southwest 427 491 30,000 -50 Level Fort Worth Center
06:00AM 33.2722 -92.6183 228° Southwest 427 491 29,900 -1,700 Descending Fort Worth Center
06:01AM 33.1903 -92.7197 226° Southwest 427 491 26,600 -3,700 Descending Fort Worth Center
06:02AM 33.1106 -92.8181 226° Southwest 427 491 22,500 -3,897 Descending Fort Worth Center
06:03AM 33.0308 -92.9189 227° Southwest 407 468 19,000 -3,350 Descending Fort Worth Center
06:04AM 32.9669 -93.0014 227° Southwest 411 473 15,800 -2,537 Descending Fort Worth Center
06:05AM 32.8947 -93.0914 226° Southwest 397 457 13,800 -2,150 Descending Fort Worth Center
06:06AM 32.8289 -93.1736 226° Southwest 366 421 11,500 -1,900 Descending Fort Worth Center
06:07AM 32.7686 -93.2481 226° Southwest 340 391 10,000 -750 Descending Fort Worth Center
06:08AM 32.7144 -93.3125 225° Southwest 303 349 10,000 -850 Level Fort Worth Center
06:09AM 32.6625 -93.3864 230° Southwest 273 314 8,300 -1,700 Descending Fort Worth Center
06:10AM 32.6125 -93.4503 227° Southwest 273 314 6,600 -1,600 Descending Fort Worth Center
06:11AM 32.5642 -93.5139 228° Southwest 273 314 5,100 -1,650 Descending Fort Worth Center
06:12AM 32.5222 -93.5700 228° Southwest 263 303 3,300 -1,550 Descending Fort Worth Center
06:13AM 32.4781 -93.6308 229° Southwest 242 278 2,000 -650 Descending Fort Worth Center
06:14AM 32.4436 -93.6692 223° Southwest 203 234 2,000  Level Fort Worth Center
06:15AM 32.4094 -93.7125 227° Southwest 175 201 2,000 -100 Level Fort Worth Center
06:16AM 32.3875 -93.7431 230° Southwest 151 174 1,800 -350 Descending Fort Worth Center
06:17AM 32.3947 -93.7819 282° West 103 119 1,300 -545 Descending Fort Worth Center
06:18AM 32.4250 -93.8128 319° Northwest 124 143 600 -583 Descending Fort Worth Center
06:20AM 32.4333 -93.8167 320° Northwest  Level FlightAware Approximate